sensor_id;sensor_type;location;lat;lon;timestamp;P1;durP1;ratioP1;P2;durP2;ratioP2
6033;SDS011;3045;43.226;27.858;2022-08-19T00:01:27;11.45;;;10.27;;
6033;SDS011;3045;43.226;27.858;2022-08-19T00:03:55;10.50;;;9.82;;
6033;SDS011;3045;43.226;27.858;2022-08-19T00:06:22;10.93;;;9.95;;
6033;SDS011;3045;43.226;27.858;2022-08-19T00:08:50;13.13;;;10.68;;
6033;SDS011;3045;43.226;27.858;2022-08-19T00:11:17;13.30;;;10.88;;
6033;SDS011;3045;43.226;27.858;2022-08-19T00:13:45;11.18;;;10.18;;
6033;SDS011;3045;43.226;27.858;2022-08-19T00:16:13;11.35;;;10.30;;
6033;SDS011;3045;43.226;27.858;2022-08-19T00:18:40;11.38;;;10.52;;
6033;SDS011;3045;43.226;27.858;2022-08-19T00:21:07;10.65;;;9.63;;
6033;SDS011;3045;43.226;27.858;2022-08-19T00:23:34;11.10;;;10.18;;
6033;SDS011;3045;43.226;27.858;2022-08-19T00:26:03;11.40;;;10.55;;
6033;SDS011;3045;43.226;27.858;2022-08-19T00:28:30;10.57;;;9.93;;
6033;SDS011;3045;43.226;27.858;2022-08-19T00:30:58;10.35;;;9.85;;
6033;SDS011;3045;43.226;27.858;2022-08-19T00:33:25;11.00;;;10.10;;
6033;SDS011;3045;43.226;27.858;2022-08-19T00:35:52;10.30;;;9.70;;
6033;SDS011;3045;43.226;27.858;2022-08-19T00:38:19;12.82;;;10.45;;
6033;SDS011;3045;43.226;27.858;2022-08-19T00:40:47;10.68;;;9.88;;
6033;SDS011;3045;43.226;27.858;2022-08-19T00:43:19;9.90;;;9.25;;
6033;SDS011;3045;43.226;27.858;2022-08-19T00:45:48;10.63;;;9.80;;
6033;SDS011;3045;43.226;27.858;2022-08-19T00:48:15;9.95;;;9.45;;
6033;SDS011;3045;43.226;27.858;2022-08-19T00:50:43;10.52;;;10.13;;
6033;SDS011;3045;43.226;27.858;2022-08-19T00:53:12;9.77;;;9.38;;
6033;SDS011;3045;43.226;27.858;2022-08-19T00:55:42;9.93;;;9.25;;
6033;SDS011;3045;43.226;27.858;2022-08-19T00:58:13;10.73;;;9.68;;
6033;SDS011;3045;43.226;27.858;2022-08-19T01:00:43;10.15;;;9.55;;
6033;SDS011;3045;43.226;27.858;2022-08-19T01:03:12;10.63;;;10.02;;
6033;SDS011;3045;43.226;27.858;2022-08-19T01:05:41;10.60;;;9.93;;
6033;SDS011;3045;43.226;27.858;2022-08-19T01:08:10;10.88;;;10.18;;
6033;SDS011;3045;43.226;27.858;2022-08-19T01:10:39;10.55;;;9.70;;
6033;SDS011;3045;43.226;27.858;2022-08-19T01:13:09;10.45;;;9.80;;
6033;SDS011;3045;43.226;27.858;2022-08-19T01:15:40;10.52;;;9.90;;
6033;SDS011;3045;43.226;27.858;2022-08-19T01:18:11;10.23;;;9.73;;
6033;SDS011;3045;43.226;27.858;2022-08-19T01:20:41;10.55;;;10.05;;
6033;SDS011;3045;43.226;27.858;2022-08-19T01:23:10;11.10;;;10.25;;
6033;SDS011;3045;43.226;27.858;2022-08-19T01:25:39;10.95;;;10.07;;
6033;SDS011;3045;43.226;27.858;2022-08-19T01:28:14;10.57;;;10.18;;
6033;SDS011;3045;43.226;27.858;2022-08-19T01:30:43;11.15;;;10.40;;
6033;SDS011;3045;43.226;27.858;2022-08-19T01:33:11;10.98;;;10.38;;
6033;SDS011;3045;43.226;27.858;2022-08-19T01:35:38;11.30;;;10.40;;
6033;SDS011;3045;43.226;27.858;2022-08-19T01:38:06;10.52;;;9.75;;
6033;SDS011;3045;43.226;27.858;2022-08-19T01:40:38;10.98;;;10.10;;
6033;SDS011;3045;43.226;27.858;2022-08-19T01:43:07;12.63;;;11.70;;
6033;SDS011;3045;43.226;27.858;2022-08-19T01:45:34;11.90;;;10.85;;
6033;SDS011;3045;43.226;27.858;2022-08-19T01:48:05;10.98;;;10.25;;
6033;SDS011;3045;43.226;27.858;2022-08-19T01:50:34;11.77;;;10.73;;
6033;SDS011;3045;43.226;27.858;2022-08-19T01:53:02;12.73;;;10.70;;
6033;SDS011;3045;43.226;27.858;2022-08-19T01:55:31;11.52;;;10.63;;
6033;SDS011;3045;43.226;27.858;2022-08-19T01:58:00;11.88;;;10.85;;
6033;SDS011;3045;43.226;27.858;2022-08-19T02:00:30;12.50;;;11.20;;
6033;SDS011;3045;43.226;27.858;2022-08-19T02:02:58;11.05;;;10.45;;
6033;SDS011;3045;43.226;27.858;2022-08-19T02:05:26;12.23;;;11.18;;
6033;SDS011;3045;43.226;27.858;2022-08-19T02:07:54;11.65;;;10.75;;
6033;SDS011;3045;43.226;27.858;2022-08-19T02:10:21;11.38;;;10.55;;
6033;SDS011;3045;43.226;27.858;2022-08-19T02:12:48;12.05;;;11.18;;
6033;SDS011;3045;43.226;27.858;2022-08-19T02:15:18;11.90;;;10.75;;
6033;SDS011;3045;43.226;27.858;2022-08-19T02:17:45;12.18;;;11.05;;
6033;SDS011;3045;43.226;27.858;2022-08-19T02:20:13;10.55;;;10.05;;
6033;SDS011;3045;43.226;27.858;2022-08-19T02:22:40;11.70;;;10.93;;
6033;SDS011;3045;43.226;27.858;2022-08-19T02:25:08;11.65;;;10.93;;
6033;SDS011;3045;43.226;27.858;2022-08-19T02:27:35;11.48;;;10.65;;
6033;SDS011;3045;43.226;27.858;2022-08-19T02:30:03;11.70;;;10.73;;
6033;SDS011;3045;43.226;27.858;2022-08-19T02:32:33;12.35;;;11.00;;
6033;SDS011;3045;43.226;27.858;2022-08-19T02:34:59;10.60;;;10.15;;
6033;SDS011;3045;43.226;27.858;2022-08-19T02:37:28;11.73;;;11.13;;
6033;SDS011;3045;43.226;27.858;2022-08-19T02:40:09;11.50;;;10.75;;
6033;SDS011;3045;43.226;27.858;2022-08-19T02:42:37;11.18;;;10.40;;
6033;SDS011;3045;43.226;27.858;2022-08-19T02:45:06;11.02;;;10.52;;
6033;SDS011;3045;43.226;27.858;2022-08-19T02:47:35;11.20;;;10.45;;
6033;SDS011;3045;43.226;27.858;2022-08-19T02:50:02;11.73;;;10.75;;
6033;SDS011;3045;43.226;27.858;2022-08-19T02:52:31;11.20;;;10.27;;
6033;SDS011;3045;43.226;27.858;2022-08-19T02:54:58;10.63;;;9.85;;
6033;SDS011;3045;43.226;27.858;2022-08-19T02:57:26;10.95;;;9.80;;
6033;SDS011;3045;43.226;27.858;2022-08-19T02:59:53;11.98;;;11.05;;
6033;SDS011;3045;43.226;27.858;2022-08-19T03:02:20;11.43;;;10.45;;
6033;SDS011;3045;43.226;27.858;2022-08-19T03:04:48;11.18;;;10.50;;
6033;SDS011;3045;43.226;27.858;2022-08-19T03:07:16;10.98;;;10.10;;
6033;SDS011;3045;43.226;27.858;2022-08-19T03:09:43;10.77;;;10.18;;
6033;SDS011;3045;43.226;27.858;2022-08-19T03:12:10;10.55;;;9.80;;
6033;SDS011;3045;43.226;27.858;2022-08-19T03:14:37;10.77;;;10.18;;
6033;SDS011;3045;43.226;27.858;2022-08-19T03:17:04;11.43;;;10.43;;
6033;SDS011;3045;43.226;27.858;2022-08-19T03:19:31;11.30;;;10.27;;
6033;SDS011;3045;43.226;27.858;2022-08-19T03:21:59;10.90;;;10.40;;
6033;SDS011;3045;43.226;27.858;2022-08-19T03:24:27;10.45;;;9.80;;
6033;SDS011;3045;43.226;27.858;2022-08-19T03:26:55;11.00;;;10.20;;
6033;SDS011;3045;43.226;27.858;2022-08-19T03:29:23;10.82;;;10.32;;
6033;SDS011;3045;43.226;27.858;2022-08-19T03:31:52;11.65;;;10.32;;
6033;SDS011;3045;43.226;27.858;2022-08-19T03:34:20;11.35;;;10.38;;
6033;SDS011;3045;43.226;27.858;2022-08-19T03:36:51;11.63;;;10.57;;
6033;SDS011;3045;43.226;27.858;2022-08-19T03:39:20;10.55;;;10.10;;
6033;SDS011;3045;43.226;27.858;2022-08-19T03:41:48;10.93;;;10.32;;
6033;SDS011;3045;43.226;27.858;2022-08-19T03:44:17;11.27;;;10.65;;
6033;SDS011;3045;43.226;27.858;2022-08-19T03:46:47;12.43;;;10.65;;
6033;SDS011;3045;43.226;27.858;2022-08-19T03:49:16;10.18;;;9.77;;
6033;SDS011;3045;43.226;27.858;2022-08-19T03:51:44;11.95;;;10.98;;
6033;SDS011;3045;43.226;27.858;2022-08-19T03:54:13;10.93;;;10.30;;
6033;SDS011;3045;43.226;27.858;2022-08-19T03:56:43;11.20;;;10.23;;
6033;SDS011;3045;43.226;27.858;2022-08-19T03:59:11;11.18;;;10.48;;
6033;SDS011;3045;43.226;27.858;2022-08-19T04:01:40;10.60;;;9.95;;
6033;SDS011;3045;43.226;27.858;2022-08-19T04:04:07;11.50;;;10.77;;
6033;SDS011;3045;43.226;27.858;2022-08-19T04:06:35;10.35;;;9.85;;
6033;SDS011;3045;43.226;27.858;2022-08-19T04:09:04;11.10;;;10.40;;
6033;SDS011;3045;43.226;27.858;2022-08-19T04:11:34;9.75;;;9.05;;
6033;SDS011;3045;43.226;27.858;2022-08-19T04:14:05;10.90;;;9.70;;
6033;SDS011;3045;43.226;27.858;2022-08-19T04:16:32;10.20;;;9.55;;
6033;SDS011;3045;43.226;27.858;2022-08-19T04:19:00;10.38;;;9.38;;
6033;SDS011;3045;43.226;27.858;2022-08-19T04:21:28;11.77;;;10.68;;
6033;SDS011;3045;43.226;27.858;2022-08-19T04:23:56;11.07;;;10.20;;
6033;SDS011;3045;43.226;27.858;2022-08-19T04:26:25;14.13;;;12.73;;
6033;SDS011;3045;43.226;27.858;2022-08-19T04:28:53;11.80;;;10.77;;
6033;SDS011;3045;43.226;27.858;2022-08-19T04:31:23;11.35;;;9.40;;
6033;SDS011;3045;43.226;27.858;2022-08-19T04:33:52;10.90;;;9.93;;
6033;SDS011;3045;43.226;27.858;2022-08-19T04:36:22;9.65;;;9.15;;
6033;SDS011;3045;43.226;27.858;2022-08-19T04:38:53;9.48;;;8.80;;
6033;SDS011;3045;43.226;27.858;2022-08-19T04:41:20;9.77;;;8.40;;
6033;SDS011;3045;43.226;27.858;2022-08-19T04:44:05;10.00;;;9.05;;
6033;SDS011;3045;43.226;27.858;2022-08-19T04:46:33;8.95;;;8.45;;
6033;SDS011;3045;43.226;27.858;2022-08-19T04:49:01;9.27;;;8.60;;
6033;SDS011;3045;43.226;27.858;2022-08-19T04:51:30;10.48;;;9.50;;
6033;SDS011;3045;43.226;27.858;2022-08-19T04:53:58;9.38;;;8.60;;
6033;SDS011;3045;43.226;27.858;2022-08-19T04:56:26;11.45;;;8.55;;
6033;SDS011;3045;43.226;27.858;2022-08-19T04:58:54;9.13;;;8.45;;
6033;SDS011;3045;43.226;27.858;2022-08-19T05:01:24;9.55;;;8.73;;
6033;SDS011;3045;43.226;27.858;2022-08-19T05:03:56;8.73;;;8.23;;
6033;SDS011;3045;43.226;27.858;2022-08-19T05:06:24;9.23;;;8.73;;
6033;SDS011;3045;43.226;27.858;2022-08-19T05:08:52;9.35;;;8.25;;
6033;SDS011;3045;43.226;27.858;2022-08-19T05:11:21;8.48;;;7.90;;
6033;SDS011;3045;43.226;27.858;2022-08-19T05:13:53;8.45;;;7.68;;
6033;SDS011;3045;43.226;27.858;2022-08-19T05:16:21;8.15;;;7.75;;
6033;SDS011;3045;43.226;27.858;2022-08-19T05:18:49;8.68;;;7.97;;
6033;SDS011;3045;43.226;27.858;2022-08-19T05:21:35;11.95;;;7.43;;
6033;SDS011;3045;43.226;27.858;2022-08-19T05:24:21;9.52;;;8.60;;
6033;SDS011;3045;43.226;27.858;2022-08-19T05:26:50;8.07;;;7.57;;
6033;SDS011;3045;43.226;27.858;2022-08-19T05:29:18;8.15;;;7.40;;
6033;SDS011;3045;43.226;27.858;2022-08-19T05:31:47;8.20;;;7.78;;
6033;SDS011;3045;43.226;27.858;2022-08-19T05:34:15;8.00;;;7.50;;
6033;SDS011;3045;43.226;27.858;2022-08-19T05:36:44;8.43;;;7.80;;
6033;SDS011;3045;43.226;27.858;2022-08-19T05:39:13;8.65;;;7.97;;
6033;SDS011;3045;43.226;27.858;2022-08-19T05:41:42;8.55;;;7.85;;
6033;SDS011;3045;43.226;27.858;2022-08-19T05:44:10;8.18;;;7.65;;
6033;SDS011;3045;43.226;27.858;2022-08-19T05:46:37;8.25;;;7.85;;
6033;SDS011;3045;43.226;27.858;2022-08-19T05:49:04;8.55;;;7.78;;
6033;SDS011;3045;43.226;27.858;2022-08-19T05:51:32;8.18;;;7.72;;
6033;SDS011;3045;43.226;27.858;2022-08-19T05:54:02;12.27;;;8.60;;
6033;SDS011;3045;43.226;27.858;2022-08-19T05:56:30;8.85;;;7.95;;
6033;SDS011;3045;43.226;27.858;2022-08-19T05:59:03;8.35;;;7.78;;
6033;SDS011;3045;43.226;27.858;2022-08-19T06:01:36;8.85;;;8.43;;
6033;SDS011;3045;43.226;27.858;2022-08-19T06:04:04;8.90;;;8.40;;
6033;SDS011;3045;43.226;27.858;2022-08-19T06:06:32;12.88;;;12.00;;
6033;SDS011;3045;43.226;27.858;2022-08-19T06:08:59;11.35;;;10.32;;
6033;SDS011;3045;43.226;27.858;2022-08-19T06:11:32;15.45;;;14.40;;
6033;SDS011;3045;43.226;27.858;2022-08-19T06:14:02;8.02;;;7.35;;
6033;SDS011;3045;43.226;27.858;2022-08-19T06:16:32;7.65;;;7.15;;
6033;SDS011;3045;43.226;27.858;2022-08-19T06:19:00;8.13;;;7.60;;
6033;SDS011;3045;43.226;27.858;2022-08-19T06:21:32;8.25;;;7.75;;
6033;SDS011;3045;43.226;27.858;2022-08-19T06:23:59;8.80;;;8.40;;
6033;SDS011;3045;43.226;27.858;2022-08-19T06:26:28;8.93;;;8.20;;
6033;SDS011;3045;43.226;27.858;2022-08-19T06:28:56;7.95;;;7.40;;
6033;SDS011;3045;43.226;27.858;2022-08-19T06:31:23;7.63;;;7.13;;
6033;SDS011;3045;43.226;27.858;2022-08-19T06:33:52;8.40;;;7.88;;
6033;SDS011;3045;43.226;27.858;2022-08-19T06:36:20;8.50;;;8.00;;
6033;SDS011;3045;43.226;27.858;2022-08-19T06:38:56;7.68;;;6.93;;
6033;SDS011;3045;43.226;27.858;2022-08-19T06:41:25;8.60;;;7.72;;
6033;SDS011;3045;43.226;27.858;2022-08-19T06:43:54;8.18;;;7.68;;
6033;SDS011;3045;43.226;27.858;2022-08-19T06:46:22;8.18;;;7.75;;
6033;SDS011;3045;43.226;27.858;2022-08-19T06:48:49;8.30;;;7.57;;
6033;SDS011;3045;43.226;27.858;2022-08-19T06:51:18;9.65;;;7.75;;
6033;SDS011;3045;43.226;27.858;2022-08-19T06:53:46;8.30;;;7.68;;
6033;SDS011;3045;43.226;27.858;2022-08-19T06:56:13;7.63;;;7.18;;
6033;SDS011;3045;43.226;27.858;2022-08-19T06:58:42;8.95;;;8.30;;
6033;SDS011;3045;43.226;27.858;2022-08-19T07:01:10;8.48;;;8.07;;
6033;SDS011;3045;43.226;27.858;2022-08-19T07:03:37;8.27;;;7.72;;
6033;SDS011;3045;43.226;27.858;2022-08-19T07:06:05;8.35;;;7.65;;
6033;SDS011;3045;43.226;27.858;2022-08-19T07:08:35;8.13;;;7.55;;
6033;SDS011;3045;43.226;27.858;2022-08-19T07:11:06;8.45;;;7.65;;
6033;SDS011;3045;43.226;27.858;2022-08-19T07:13:35;8.10;;;7.60;;
6033;SDS011;3045;43.226;27.858;2022-08-19T07:16:05;7.70;;;7.07;;
6033;SDS011;3045;43.226;27.858;2022-08-19T07:18:33;8.55;;;7.68;;
6033;SDS011;3045;43.226;27.858;2022-08-19T07:21:04;7.20;;;6.90;;
6033;SDS011;3045;43.226;27.858;2022-08-19T07:23:33;7.95;;;7.30;;
6033;SDS011;3045;43.226;27.858;2022-08-19T07:26:04;8.43;;;7.85;;
6033;SDS011;3045;43.226;27.858;2022-08-19T07:28:31;7.55;;;6.85;;
6033;SDS011;3045;43.226;27.858;2022-08-19T07:30:58;7.80;;;7.15;;
6033;SDS011;3045;43.226;27.858;2022-08-19T07:33:28;8.18;;;7.38;;
6033;SDS011;3045;43.226;27.858;2022-08-19T07:35:57;8.02;;;7.30;;
6033;SDS011;3045;43.226;27.858;2022-08-19T07:38:24;9.30;;;8.13;;
6033;SDS011;3045;43.226;27.858;2022-08-19T07:40:51;8.13;;;7.38;;
6033;SDS011;3045;43.226;27.858;2022-08-19T07:43:19;8.90;;;7.07;;
6033;SDS011;3045;43.226;27.858;2022-08-19T07:45:50;7.45;;;7.05;;
6033;SDS011;3045;43.226;27.858;2022-08-19T07:48:17;7.82;;;7.20;;
6033;SDS011;3045;43.226;27.858;2022-08-19T07:50:45;6.72;;;6.28;;
6033;SDS011;3045;43.226;27.858;2022-08-19T07:53:13;11.00;;;7.18;;
6033;SDS011;3045;43.226;27.858;2022-08-19T07:55:40;8.43;;;7.55;;
6033;SDS011;3045;43.226;27.858;2022-08-19T07:58:07;8.27;;;7.47;;
6033;SDS011;3045;43.226;27.858;2022-08-19T08:00:34;8.07;;;7.05;;
6033;SDS011;3045;43.226;27.858;2022-08-19T08:03:01;8.63;;;7.78;;
6033;SDS011;3045;43.226;27.858;2022-08-19T08:05:28;9.45;;;7.13;;
6033;SDS011;3045;43.226;27.858;2022-08-19T08:08:14;7.70;;;7.10;;
6033;SDS011;3045;43.226;27.858;2022-08-19T08:10:58;9.38;;;6.80;;
6033;SDS011;3045;43.226;27.858;2022-08-19T08:13:25;7.40;;;6.70;;
6033;SDS011;3045;43.226;27.858;2022-08-19T08:15:52;7.55;;;7.00;;
6033;SDS011;3045;43.226;27.858;2022-08-19T08:18:19;8.00;;;7.25;;
6033;SDS011;3045;43.226;27.858;2022-08-19T08:20:46;7.80;;;7.07;;
6033;SDS011;3045;43.226;27.858;2022-08-19T08:23:15;10.57;;;7.00;;
6033;SDS011;3045;43.226;27.858;2022-08-19T08:25:51;6.88;;;6.57;;
6033;SDS011;3045;43.226;27.858;2022-08-19T08:28:19;6.68;;;6.07;;
6033;SDS011;3045;43.226;27.858;2022-08-19T08:30:46;11.77;;;6.68;;
6033;SDS011;3045;43.226;27.858;2022-08-19T08:33:17;7.50;;;6.90;;
6033;SDS011;3045;43.226;27.858;2022-08-19T08:35:48;7.47;;;6.85;;
6033;SDS011;3045;43.226;27.858;2022-08-19T08:38:16;12.75;;;6.88;;
6033;SDS011;3045;43.226;27.858;2022-08-19T08:40:44;12.23;;;7.10;;
6033;SDS011;3045;43.226;27.858;2022-08-19T08:43:19;8.77;;;6.93;;
6033;SDS011;3045;43.226;27.858;2022-08-19T08:45:52;7.07;;;6.45;;
6033;SDS011;3045;43.226;27.858;2022-08-19T08:48:24;9.82;;;6.50;;
6033;SDS011;3045;43.226;27.858;2022-08-19T08:50:58;8.50;;;6.22;;
6033;SDS011;3045;43.226;27.858;2022-08-19T08:53:29;6.57;;;6.07;;
6033;SDS011;3045;43.226;27.858;2022-08-19T08:55:58;8.93;;;7.10;;
6033;SDS011;3045;43.226;27.858;2022-08-19T08:58:29;6.55;;;6.15;;
6033;SDS011;3045;43.226;27.858;2022-08-19T09:01:11;10.77;;;6.30;;
6033;SDS011;3045;43.226;27.858;2022-08-19T09:03:39;7.53;;;5.97;;
6033;SDS011;3045;43.226;27.858;2022-08-19T09:06:11;6.78;;;6.10;;
6033;SDS011;3045;43.226;27.858;2022-08-19T09:08:47;8.05;;;6.60;;
6033;SDS011;3045;43.226;27.858;2022-08-19T09:11:30;6.70;;;6.40;;
6033;SDS011;3045;43.226;27.858;2022-08-19T09:14:08;7.05;;;5.97;;
6033;SDS011;3045;43.226;27.858;2022-08-19T09:16:40;7.68;;;7.03;;
6033;SDS011;3045;43.226;27.858;2022-08-19T09:19:07;9.60;;;6.57;;
6033;SDS011;3045;43.226;27.858;2022-08-19T09:21:35;14.77;;;6.47;;
6033;SDS011;3045;43.226;27.858;2022-08-19T09:24:04;7.10;;;6.50;;
6033;SDS011;3045;43.226;27.858;2022-08-19T09:26:32;13.93;;;6.35;;
6033;SDS011;3045;43.226;27.858;2022-08-19T09:28:59;6.70;;;6.30;;
6033;SDS011;3045;43.226;27.858;2022-08-19T09:31:30;7.32;;;6.65;;
6033;SDS011;3045;43.226;27.858;2022-08-19T09:34:02;6.15;;;5.75;;
6033;SDS011;3045;43.226;27.858;2022-08-19T09:36:33;6.50;;;6.00;;
6033;SDS011;3045;43.226;27.858;2022-08-19T09:39:01;6.30;;;5.72;;
6033;SDS011;3045;43.226;27.858;2022-08-19T09:41:31;6.05;;;5.60;;
6033;SDS011;3045;43.226;27.858;2022-08-19T09:43:58;5.88;;;5.68;;
6033;SDS011;3045;43.226;27.858;2022-08-19T09:46:26;6.28;;;5.95;;
6033;SDS011;3045;43.226;27.858;2022-08-19T09:48:57;7.47;;;6.13;;
6033;SDS011;3045;43.226;27.858;2022-08-19T09:51:25;11.23;;;6.75;;
6033;SDS011;3045;43.226;27.858;2022-08-19T09:53:53;8.15;;;6.13;;
6033;SDS011;3045;43.226;27.858;2022-08-19T09:56:22;11.18;;;6.45;;
6033;SDS011;3045;43.226;27.858;2022-08-19T09:58:51;7.07;;;6.47;;
6033;SDS011;3045;43.226;27.858;2022-08-19T10:01:18;10.63;;;6.68;;
6033;SDS011;3045;43.226;27.858;2022-08-19T10:03:48;6.35;;;5.97;;
6033;SDS011;3045;43.226;27.858;2022-08-19T10:06:16;8.05;;;6.60;;
6033;SDS011;3045;43.226;27.858;2022-08-19T10:08:43;7.07;;;6.63;;
6033;SDS011;3045;43.226;27.858;2022-08-19T10:11:11;6.70;;;6.28;;
6033;SDS011;3045;43.226;27.858;2022-08-19T10:13:41;6.65;;;6.25;;
6033;SDS011;3045;43.226;27.858;2022-08-19T10:16:12;6.13;;;5.80;;
6033;SDS011;3045;43.226;27.858;2022-08-19T10:18:41;6.90;;;6.15;;
6033;SDS011;3045;43.226;27.858;2022-08-19T10:21:09;6.45;;;6.13;;
6033;SDS011;3045;43.226;27.858;2022-08-19T10:23:40;7.32;;;6.32;;
6033;SDS011;3045;43.226;27.858;2022-08-19T10:26:11;8.52;;;7.28;;
6033;SDS011;3045;43.226;27.858;2022-08-19T10:28:39;7.00;;;6.40;;
6033;SDS011;3045;43.226;27.858;2022-08-19T10:31:07;8.93;;;6.57;;
6033;SDS011;3045;43.226;27.858;2022-08-19T10:33:37;7.25;;;6.70;;
6033;SDS011;3045;43.226;27.858;2022-08-19T10:36:05;6.85;;;5.82;;
6033;SDS011;3045;43.226;27.858;2022-08-19T10:38:34;13.13;;;5.97;;
6033;SDS011;3045;43.226;27.858;2022-08-19T10:41:08;10.52;;;6.60;;
6033;SDS011;3045;43.226;27.858;2022-08-19T10:43:36;6.20;;;5.95;;
6033;SDS011;3045;43.226;27.858;2022-08-19T10:46:05;7.20;;;6.28;;
6033;SDS011;3045;43.226;27.858;2022-08-19T10:48:32;6.55;;;6.25;;
6033;SDS011;3045;43.226;27.858;2022-08-19T10:51:01;7.18;;;6.55;;
6033;SDS011;3045;43.226;27.858;2022-08-19T10:53:45;6.45;;;6.15;;
6033;SDS011;3045;43.226;27.858;2022-08-19T10:56:12;7.07;;;6.40;;
6033;SDS011;3045;43.226;27.858;2022-08-19T10:58:57;7.90;;;6.97;;
6033;SDS011;3045;43.226;27.858;2022-08-19T11:01:24;7.05;;;6.65;;
6033;SDS011;3045;43.226;27.858;2022-08-19T11:03:52;12.60;;;6.75;;
6033;SDS011;3045;43.226;27.858;2022-08-19T11:06:21;7.95;;;6.80;;
6033;SDS011;3045;43.226;27.858;2022-08-19T11:08:50;7.07;;;6.53;;
6033;SDS011;3045;43.226;27.858;2022-08-19T11:11:16;7.28;;;6.57;;
6033;SDS011;3045;43.226;27.858;2022-08-19T11:13:44;10.07;;;6.57;;
6033;SDS011;3045;43.226;27.858;2022-08-19T11:16:12;9.00;;;6.30;;
6033;SDS011;3045;43.226;27.858;2022-08-19T11:18:42;7.05;;;6.43;;
6033;SDS011;3045;43.226;27.858;2022-08-19T11:21:12;8.82;;;6.00;;
6033;SDS011;3045;43.226;27.858;2022-08-19T11:23:43;6.63;;;6.07;;
6033;SDS011;3045;43.226;27.858;2022-08-19T11:26:11;6.60;;;6.10;;
6033;SDS011;3045;43.226;27.858;2022-08-19T11:28:38;8.90;;;6.60;;
6033;SDS011;3045;43.226;27.858;2022-08-19T11:31:09;7.65;;;7.35;;
6033;SDS011;3045;43.226;27.858;2022-08-19T11:33:36;9.18;;;8.15;;
6033;SDS011;3045;43.226;27.858;2022-08-19T11:36:03;8.27;;;7.72;;
6033;SDS011;3045;43.226;27.858;2022-08-19T11:38:30;9.50;;;8.45;;
6033;SDS011;3045;43.226;27.858;2022-08-19T11:40:59;9.50;;;8.65;;
6033;SDS011;3045;43.226;27.858;2022-08-19T11:43:28;10.70;;;9.27;;
6033;SDS011;3045;43.226;27.858;2022-08-19T11:45:56;10.35;;;9.57;;
6033;SDS011;3045;43.226;27.858;2022-08-19T11:48:23;10.13;;;9.30;;
6033;SDS011;3045;43.226;27.858;2022-08-19T11:50:51;9.80;;;8.90;;
6033;SDS011;3045;43.226;27.858;2022-08-19T11:53:20;9.88;;;9.10;;
6033;SDS011;3045;43.226;27.858;2022-08-19T11:55:50;9.48;;;8.95;;
6033;SDS011;3045;43.226;27.858;2022-08-19T11:58:22;10.65;;;9.50;;
6033;SDS011;3045;43.226;27.858;2022-08-19T12:00:49;10.18;;;9.35;;
6033;SDS011;3045;43.226;27.858;2022-08-19T12:03:17;9.98;;;8.50;;
6033;SDS011;3045;43.226;27.858;2022-08-19T12:05:44;14.57;;;9.85;;
6033;SDS011;3045;43.226;27.858;2022-08-19T12:08:12;9.85;;;9.10;;
6033;SDS011;3045;43.226;27.858;2022-08-19T12:10:40;15.48;;;9.80;;
6033;SDS011;3045;43.226;27.858;2022-08-19T12:13:08;13.23;;;9.40;;
6033;SDS011;3045;43.226;27.858;2022-08-19T12:15:37;10.13;;;9.25;;
6033;SDS011;3045;43.226;27.858;2022-08-19T12:18:06;9.80;;;9.13;;
6033;SDS011;3045;43.226;27.858;2022-08-19T12:20:34;9.50;;;8.88;;
6033;SDS011;3045;43.226;27.858;2022-08-19T12:23:02;11.15;;;9.73;;
6033;SDS011;3045;43.226;27.858;2022-08-19T12:25:29;10.65;;;9.80;;
6033;SDS011;3045;43.226;27.858;2022-08-19T12:27:56;10.38;;;9.57;;
6033;SDS011;3045;43.226;27.858;2022-08-19T12:30:24;10.10;;;9.57;;
6033;SDS011;3045;43.226;27.858;2022-08-19T12:32:52;11.40;;;10.27;;
6033;SDS011;3045;43.226;27.858;2022-08-19T12:35:22;10.73;;;9.77;;
6033;SDS011;3045;43.226;27.858;2022-08-19T12:37:49;11.05;;;10.23;;
6033;SDS011;3045;43.226;27.858;2022-08-19T12:40:16;10.75;;;9.57;;
6033;SDS011;3045;43.226;27.858;2022-08-19T12:42:44;11.05;;;9.88;;
6033;SDS011;3045;43.226;27.858;2022-08-19T12:45:12;10.20;;;9.82;;
6033;SDS011;3045;43.226;27.858;2022-08-19T12:47:40;11.00;;;9.70;;
6033;SDS011;3045;43.226;27.858;2022-08-19T12:50:08;12.00;;;10.25;;
6033;SDS011;3045;43.226;27.858;2022-08-19T12:52:35;13.27;;;9.70;;
6033;SDS011;3045;43.226;27.858;2022-08-19T12:55:03;10.93;;;10.02;;
6033;SDS011;3045;43.226;27.858;2022-08-19T12:57:32;11.00;;;10.13;;
6033;SDS011;3045;43.226;27.858;2022-08-19T13:00:02;9.98;;;9.48;;
6033;SDS011;3045;43.226;27.858;2022-08-19T13:02:34;10.48;;;9.80;;
6033;SDS011;3045;43.226;27.858;2022-08-19T13:05:01;9.52;;;9.02;;
6033;SDS011;3045;43.226;27.858;2022-08-19T13:07:30;9.98;;;9.20;;
6033;SDS011;3045;43.226;27.858;2022-08-19T13:09:58;10.45;;;9.55;;
6033;SDS011;3045;43.226;27.858;2022-08-19T13:12:25;10.32;;;9.65;;
6033;SDS011;3045;43.226;27.858;2022-08-19T13:14:52;9.77;;;9.15;;
6033;SDS011;3045;43.226;27.858;2022-08-19T13:17:20;10.00;;;9.00;;
6033;SDS011;3045;43.226;27.858;2022-08-19T13:19:47;10.60;;;9.73;;
6033;SDS011;3045;43.226;27.858;2022-08-19T13:22:14;11.10;;;9.48;;
6033;SDS011;3045;43.226;27.858;2022-08-19T13:24:42;11.65;;;10.52;;
6033;SDS011;3045;43.226;27.858;2022-08-19T13:27:09;12.35;;;9.25;;
6033;SDS011;3045;43.226;27.858;2022-08-19T13:29:36;9.32;;;8.68;;
6033;SDS011;3045;43.226;27.858;2022-08-19T13:32:20;11.82;;;9.48;;
6033;SDS011;3045;43.226;27.858;2022-08-19T13:35:05;10.52;;;9.60;;
6033;SDS011;3045;43.226;27.858;2022-08-19T13:37:32;13.27;;;9.82;;
6033;SDS011;3045;43.226;27.858;2022-08-19T13:40:10;10.77;;;9.93;;
6033;SDS011;3045;43.226;27.858;2022-08-19T13:42:40;9.65;;;8.80;;
6033;SDS011;3045;43.226;27.858;2022-08-19T13:45:09;11.82;;;9.48;;
6033;SDS011;3045;43.226;27.858;2022-08-19T13:47:36;10.07;;;9.13;;
6033;SDS011;3045;43.226;27.858;2022-08-19T13:50:08;9.70;;;9.07;;
6033;SDS011;3045;43.226;27.858;2022-08-19T13:52:36;9.80;;;9.20;;
6033;SDS011;3045;43.226;27.858;2022-08-19T13:55:03;10.40;;;8.95;;
6033;SDS011;3045;43.226;27.858;2022-08-19T13:57:32;9.02;;;8.32;;
6033;SDS011;3045;43.226;27.858;2022-08-19T14:00:00;10.73;;;9.50;;
6033;SDS011;3045;43.226;27.858;2022-08-19T14:02:27;9.63;;;8.82;;
6033;SDS011;3045;43.226;27.858;2022-08-19T14:04:54;9.27;;;8.52;;
6033;SDS011;3045;43.226;27.858;2022-08-19T14:07:21;9.85;;;8.90;;
6033;SDS011;3045;43.226;27.858;2022-08-19T14:09:49;9.93;;;9.05;;
6033;SDS011;3045;43.226;27.858;2022-08-19T14:12:18;9.05;;;8.50;;
6033;SDS011;3045;43.226;27.858;2022-08-19T14:14:48;10.30;;;9.40;;
6033;SDS011;3045;43.226;27.858;2022-08-19T14:17:15;10.05;;;9.02;;
6033;SDS011;3045;43.226;27.858;2022-08-19T14:19:42;8.70;;;8.23;;
6033;SDS011;3045;43.226;27.858;2022-08-19T14:22:09;8.88;;;8.07;;
6033;SDS011;3045;43.226;27.858;2022-08-19T14:24:36;8.70;;;7.93;;
6033;SDS011;3045;43.226;27.858;2022-08-19T14:27:04;7.97;;;7.53;;
6033;SDS011;3045;43.226;27.858;2022-08-19T14:29:31;8.57;;;8.07;;
6033;SDS011;3045;43.226;27.858;2022-08-19T14:32:00;9.02;;;8.27;;
6033;SDS011;3045;43.226;27.858;2022-08-19T14:34:27;14.95;;;8.60;;
6033;SDS011;3045;43.226;27.858;2022-08-19T14:36:56;8.68;;;8.13;;
6033;SDS011;3045;43.226;27.858;2022-08-19T14:39:23;9.18;;;8.20;;
6033;SDS011;3045;43.226;27.858;2022-08-19T14:41:50;8.50;;;7.95;;
6033;SDS011;3045;43.226;27.858;2022-08-19T14:44:17;9.18;;;8.50;;
6033;SDS011;3045;43.226;27.858;2022-08-19T14:46:44;8.80;;;8.30;;
6033;SDS011;3045;43.226;27.858;2022-08-19T14:49:13;8.50;;;7.90;;
6033;SDS011;3045;43.226;27.858;2022-08-19T14:51:40;11.50;;;9.07;;
6033;SDS011;3045;43.226;27.858;2022-08-19T14:54:06;9.75;;;8.80;;
6033;SDS011;3045;43.226;27.858;2022-08-19T14:56:33;9.30;;;8.40;;
6033;SDS011;3045;43.226;27.858;2022-08-19T14:59:00;9.50;;;8.90;;
6033;SDS011;3045;43.226;27.858;2022-08-19T15:01:27;9.10;;;8.35;;